Terminal Aerodrome Forecast
Issued by NWS Knoxville/Tri Cities, TN

Home | Current Version | Previous Version | Text Only | Print | Product List | Glossary On
Versions: 1 2 3 4 5 6 7 8 9 10 11 12 13 14 15 16 17 18 19 20 21 22 23
000
FTUS44 KMRX 231123
TAFTRI
TAF
KTRI 231123Z 2312/2412 00000KT P6SM BKN120
     FM231900 26003KT P6SM VCTS BKN060CB
     FM232300 00000KT P6SM SCT050 BKN250=

USA.gov is the U.S. government's official web portal to all federal, state and local government web resources and services.